sensor_id;sensor_type;location;lat;lon;timestamp;P1;durP1;ratioP1;P2;durP2;ratioP2
8861;SDS011;4799;50.996;4.754;2022-10-31T00:00:41;14.77;;;13.03;;
8861;SDS011;4799;50.996;4.754;2022-10-31T00:03:07;14.40;;;12.90;;
8861;SDS011;4799;50.996;4.754;2022-10-31T00:05:33;16.10;;;14.40;;
8861;SDS011;4799;50.996;4.754;2022-10-31T00:07:58;17.50;;;14.03;;
8861;SDS011;4799;50.996;4.754;2022-10-31T00:10:24;15.87;;;14.07;;
8861;SDS011;4799;50.996;4.754;2022-10-31T00:12:50;15.60;;;14.00;;
8861;SDS011;4799;50.996;4.754;2022-10-31T00:15:16;16.23;;;14.50;;
8861;SDS011;4799;50.996;4.754;2022-10-31T00:17:42;20.07;;;17.83;;
8861;SDS011;4799;50.996;4.754;2022-10-31T00:20:08;17.00;;;14.80;;
8861;SDS011;4799;50.996;4.754;2022-10-31T00:22:34;15.10;;;13.50;;
8861;SDS011;4799;50.996;4.754;2022-10-31T00:25:00;14.43;;;13.03;;
8861;SDS011;4799;50.996;4.754;2022-10-31T00:27:25;16.67;;;13.37;;
8861;SDS011;4799;50.996;4.754;2022-10-31T00:29:51;21.07;;;16.53;;
8861;SDS011;4799;50.996;4.754;2022-10-31T00:32:17;17.97;;;15.73;;
8861;SDS011;4799;50.996;4.754;2022-10-31T00:34:42;20.87;;;18.33;;
8861;SDS011;4799;50.996;4.754;2022-10-31T00:37:08;18.33;;;16.17;;
8861;SDS011;4799;50.996;4.754;2022-10-31T00:39:34;17.33;;;15.53;;
8861;SDS011;4799;50.996;4.754;2022-10-31T00:41:59;20.23;;;16.57;;
8861;SDS011;4799;50.996;4.754;2022-10-31T00:44:25;16.13;;;14.53;;
8861;SDS011;4799;50.996;4.754;2022-10-31T00:46:50;16.90;;;15.03;;
8861;SDS011;4799;50.996;4.754;2022-10-31T00:49:16;18.33;;;16.40;;
8861;SDS011;4799;50.996;4.754;2022-10-31T00:51:42;20.43;;;16.37;;
8861;SDS011;4799;50.996;4.754;2022-10-31T00:54:08;17.50;;;15.60;;
8861;SDS011;4799;50.996;4.754;2022-10-31T00:56:33;20.43;;;17.80;;
8861;SDS011;4799;50.996;4.754;2022-10-31T00:58:59;23.80;;;19.70;;
8861;SDS011;4799;50.996;4.754;2022-10-31T01:01:25;22.70;;;18.53;;
8861;SDS011;4799;50.996;4.754;2022-10-31T01:03:50;18.30;;;16.37;;
8861;SDS011;4799;50.996;4.754;2022-10-31T01:06:16;19.07;;;16.83;;
8861;SDS011;4799;50.996;4.754;2022-10-31T01:08:42;18.43;;;16.30;;
8861;SDS011;4799;50.996;4.754;2022-10-31T01:13:44;21.33;;;18.30;;
8861;SDS011;4799;50.996;4.754;2022-10-31T01:16:12;20.33;;;17.77;;
8861;SDS011;4799;50.996;4.754;2022-10-31T01:18:40;18.40;;;16.47;;
8861;SDS011;4799;50.996;4.754;2022-10-31T01:23:40;18.30;;;16.53;;
8861;SDS011;4799;50.996;4.754;2022-10-31T01:26:07;19.90;;;17.90;;
8861;SDS011;4799;50.996;4.754;2022-10-31T01:28:36;19.83;;;16.77;;
8861;SDS011;4799;50.996;4.754;2022-10-31T01:31:04;19.03;;;17.03;;
8861;SDS011;4799;50.996;4.754;2022-10-31T01:33:32;18.27;;;16.50;;
8861;SDS011;4799;50.996;4.754;2022-10-31T01:35:58;19.00;;;16.67;;
8861;SDS011;4799;50.996;4.754;2022-10-31T01:38:24;19.43;;;17.07;;
8861;SDS011;4799;50.996;4.754;2022-10-31T01:40:50;19.17;;;17.27;;
8861;SDS011;4799;50.996;4.754;2022-10-31T01:43:16;16.47;;;14.83;;
8861;SDS011;4799;50.996;4.754;2022-10-31T01:45:44;18.03;;;16.13;;
8861;SDS011;4799;50.996;4.754;2022-10-31T01:48:16;18.93;;;16.90;;
8861;SDS011;4799;50.996;4.754;2022-10-31T01:50:44;19.20;;;17.27;;
8861;SDS011;4799;50.996;4.754;2022-10-31T01:53:13;19.23;;;17.33;;
8861;SDS011;4799;50.996;4.754;2022-10-31T01:55:41;23.17;;;20.67;;
8861;SDS011;4799;50.996;4.754;2022-10-31T01:58:13;17.40;;;15.60;;
8861;SDS011;4799;50.996;4.754;2022-10-31T02:00:42;18.37;;;16.20;;
8861;SDS011;4799;50.996;4.754;2022-10-31T02:03:11;16.73;;;14.93;;
8861;SDS011;4799;50.996;4.754;2022-10-31T02:05:37;19.07;;;17.10;;
8861;SDS011;4799;50.996;4.754;2022-10-31T02:10:49;17.70;;;15.83;;
8861;SDS011;4799;50.996;4.754;2022-10-31T02:13:15;17.60;;;15.90;;
8861;SDS011;4799;50.996;4.754;2022-10-31T02:15:42;21.83;;;18.40;;
8861;SDS011;4799;50.996;4.754;2022-10-31T02:18:10;22.37;;;18.13;;
8861;SDS011;4799;50.996;4.754;2022-10-31T02:20:46;21.03;;;18.83;;
8861;SDS011;4799;50.996;4.754;2022-10-31T02:31:46;23.67;;;20.50;;
8861;SDS011;4799;50.996;4.754;2022-10-31T02:37:25;21.47;;;19.20;;
8861;SDS011;4799;50.996;4.754;2022-10-31T02:40:05;28.13;;;21.83;;
8861;SDS011;4799;50.996;4.754;2022-10-31T02:42:59;25.20;;;21.73;;
8861;SDS011;4799;50.996;4.754;2022-10-31T02:45:39;22.00;;;19.53;;
8861;SDS011;4799;50.996;4.754;2022-10-31T02:48:09;22.93;;;19.73;;
8861;SDS011;4799;50.996;4.754;2022-10-31T02:50:40;23.37;;;19.97;;
8861;SDS011;4799;50.996;4.754;2022-10-31T02:53:09;22.43;;;18.97;;
8861;SDS011;4799;50.996;4.754;2022-10-31T02:58:08;20.53;;;18.33;;
8861;SDS011;4799;50.996;4.754;2022-10-31T03:00:48;18.27;;;15.83;;
8861;SDS011;4799;50.996;4.754;2022-10-31T03:03:59;16.50;;;14.80;;
8861;SDS011;4799;50.996;4.754;2022-10-31T03:06:35;17.17;;;15.37;;
8861;SDS011;4799;50.996;4.754;2022-10-31T03:17:15;16.43;;;14.07;;
8861;SDS011;4799;50.996;4.754;2022-10-31T03:19:47;16.83;;;15.13;;
8861;SDS011;4799;50.996;4.754;2022-10-31T03:22:19;16.80;;;14.93;;
8861;SDS011;4799;50.996;4.754;2022-10-31T03:24:47;21.33;;;19.13;;
8861;SDS011;4799;50.996;4.754;2022-10-31T03:27:14;25.63;;;21.13;;
8861;SDS011;4799;50.996;4.754;2022-10-31T03:29:44;24.30;;;19.57;;
8861;SDS011;4799;50.996;4.754;2022-10-31T03:32:22;18.70;;;16.50;;
8861;SDS011;4799;50.996;4.754;2022-10-31T03:34:55;19.57;;;16.80;;
8861;SDS011;4799;50.996;4.754;2022-10-31T03:37:24;17.47;;;15.67;;
8861;SDS011;4799;50.996;4.754;2022-10-31T03:39:51;17.50;;;15.60;;
8861;SDS011;4799;50.996;4.754;2022-10-31T03:42:27;18.07;;;16.27;;
8861;SDS011;4799;50.996;4.754;2022-10-31T03:44:58;18.13;;;16.23;;
8861;SDS011;4799;50.996;4.754;2022-10-31T03:47:30;21.03;;;18.80;;
8861;SDS011;4799;50.996;4.754;2022-10-31T03:49:56;18.90;;;16.90;;
8861;SDS011;4799;50.996;4.754;2022-10-31T03:52:30;17.13;;;15.07;;
8861;SDS011;4799;50.996;4.754;2022-10-31T03:55:06;19.00;;;15.27;;
8861;SDS011;4799;50.996;4.754;2022-10-31T03:57:45;16.27;;;14.57;;
8861;SDS011;4799;50.996;4.754;2022-10-31T04:00:33;16.93;;;15.10;;
8861;SDS011;4799;50.996;4.754;2022-10-31T04:03:14;14.40;;;13.00;;
8861;SDS011;4799;50.996;4.754;2022-10-31T04:05:44;16.43;;;14.70;;
8861;SDS011;4799;50.996;4.754;2022-10-31T04:08:13;13.20;;;11.73;;
8861;SDS011;4799;50.996;4.754;2022-10-31T04:10:42;13.30;;;11.90;;
8861;SDS011;4799;50.996;4.754;2022-10-31T04:13:12;12.27;;;11.03;;
8861;SDS011;4799;50.996;4.754;2022-10-31T04:15:40;17.17;;;13.93;;
8861;SDS011;4799;50.996;4.754;2022-10-31T04:18:08;18.00;;;16.10;;
8861;SDS011;4799;50.996;4.754;2022-10-31T04:20:38;19.10;;;16.27;;
8861;SDS011;4799;50.996;4.754;2022-10-31T04:23:05;18.33;;;15.70;;
8861;SDS011;4799;50.996;4.754;2022-10-31T04:25:42;15.73;;;13.30;;
8861;SDS011;4799;50.996;4.754;2022-10-31T04:28:08;20.17;;;16.67;;
8861;SDS011;4799;50.996;4.754;2022-10-31T04:30:33;19.43;;;17.07;;
8861;SDS011;4799;50.996;4.754;2022-10-31T04:32:59;24.23;;;20.90;;
8861;SDS011;4799;50.996;4.754;2022-10-31T04:35:25;27.77;;;22.67;;
8861;SDS011;4799;50.996;4.754;2022-10-31T04:37:51;35.20;;;24.60;;
8861;SDS011;4799;50.996;4.754;2022-10-31T04:40:16;25.80;;;20.77;;
8861;SDS011;4799;50.996;4.754;2022-10-31T04:42:42;21.10;;;18.20;;
8861;SDS011;4799;50.996;4.754;2022-10-31T04:45:08;18.47;;;15.70;;
8861;SDS011;4799;50.996;4.754;2022-10-31T04:47:34;20.70;;;17.83;;
8861;SDS011;4799;50.996;4.754;2022-10-31T04:50:00;17.90;;;15.47;;
8861;SDS011;4799;50.996;4.754;2022-10-31T04:52:26;20.10;;;17.73;;
8861;SDS011;4799;50.996;4.754;2022-10-31T04:54:51;19.27;;;16.43;;
8861;SDS011;4799;50.996;4.754;2022-10-31T04:57:17;17.37;;;15.53;;
8861;SDS011;4799;50.996;4.754;2022-10-31T04:59:43;18.87;;;16.13;;
8861;SDS011;4799;50.996;4.754;2022-10-31T05:02:08;19.37;;;17.30;;
8861;SDS011;4799;50.996;4.754;2022-10-31T05:04:34;22.20;;;16.43;;
8861;SDS011;4799;50.996;4.754;2022-10-31T05:07:00;17.53;;;15.63;;
8861;SDS011;4799;50.996;4.754;2022-10-31T05:09:26;21.00;;;16.93;;
8861;SDS011;4799;50.996;4.754;2022-10-31T05:11:51;20.10;;;17.57;;
8861;SDS011;4799;50.996;4.754;2022-10-31T05:14:17;28.20;;;20.47;;
8861;SDS011;4799;50.996;4.754;2022-10-31T05:16:43;27.47;;;23.20;;
8861;SDS011;4799;50.996;4.754;2022-10-31T05:19:08;29.47;;;23.23;;
8861;SDS011;4799;50.996;4.754;2022-10-31T05:21:34;24.60;;;19.87;;
8861;SDS011;4799;50.996;4.754;2022-10-31T05:24:00;22.50;;;19.10;;
8861;SDS011;4799;50.996;4.754;2022-10-31T05:26:25;21.93;;;19.63;;
8861;SDS011;4799;50.996;4.754;2022-10-31T05:28:51;22.30;;;18.70;;
8861;SDS011;4799;50.996;4.754;2022-10-31T05:31:17;19.83;;;17.73;;
8861;SDS011;4799;50.996;4.754;2022-10-31T05:33:42;21.57;;;18.60;;
8861;SDS011;4799;50.996;4.754;2022-10-31T05:36:08;20.17;;;17.80;;
8861;SDS011;4799;50.996;4.754;2022-10-31T05:38:34;24.50;;;19.40;;
8861;SDS011;4799;50.996;4.754;2022-10-31T05:41:00;20.07;;;17.70;;
8861;SDS011;4799;50.996;4.754;2022-10-31T05:43:26;20.97;;;17.50;;
8861;SDS011;4799;50.996;4.754;2022-10-31T05:45:53;29.17;;;22.80;;
8861;SDS011;4799;50.996;4.754;2022-10-31T05:48:20;24.73;;;21.13;;
8861;SDS011;4799;50.996;4.754;2022-10-31T05:50:47;26.20;;;21.63;;
8861;SDS011;4799;50.996;4.754;2022-10-31T05:53:14;23.63;;;19.40;;
8861;SDS011;4799;50.996;4.754;2022-10-31T05:55:40;27.60;;;21.50;;
8861;SDS011;4799;50.996;4.754;2022-10-31T05:58:07;24.43;;;19.90;;
8861;SDS011;4799;50.996;4.754;2022-10-31T06:00:32;23.30;;;19.73;;
8861;SDS011;4799;50.996;4.754;2022-10-31T06:03:04;30.90;;;22.47;;
8861;SDS011;4799;50.996;4.754;2022-10-31T06:05:31;24.33;;;21.50;;
8861;SDS011;4799;50.996;4.754;2022-10-31T06:07:57;24.17;;;21.60;;
8861;SDS011;4799;50.996;4.754;2022-10-31T06:10:24;22.77;;;20.37;;
8861;SDS011;4799;50.996;4.754;2022-10-31T06:12:50;30.73;;;23.47;;
8861;SDS011;4799;50.996;4.754;2022-10-31T06:15:16;30.43;;;22.73;;
8861;SDS011;4799;50.996;4.754;2022-10-31T06:17:42;31.73;;;23.80;;
8861;SDS011;4799;50.996;4.754;2022-10-31T06:20:08;31.43;;;23.83;;
8861;SDS011;4799;50.996;4.754;2022-10-31T06:22:34;30.40;;;24.67;;
8861;SDS011;4799;50.996;4.754;2022-10-31T06:25:00;36.73;;;25.87;;
8861;SDS011;4799;50.996;4.754;2022-10-31T06:27:26;28.73;;;24.30;;
8861;SDS011;4799;50.996;4.754;2022-10-31T06:29:52;34.67;;;26.13;;
8861;SDS011;4799;50.996;4.754;2022-10-31T06:32:18;33.30;;;25.90;;
8861;SDS011;4799;50.996;4.754;2022-10-31T06:34:44;34.70;;;26.17;;
8861;SDS011;4799;50.996;4.754;2022-10-31T06:37:13;31.10;;;24.17;;
8861;SDS011;4799;50.996;4.754;2022-10-31T06:39:39;28.10;;;23.90;;
8861;SDS011;4799;50.996;4.754;2022-10-31T06:42:05;29.87;;;24.00;;
8861;SDS011;4799;50.996;4.754;2022-10-31T06:44:31;25.10;;;22.40;;
8861;SDS011;4799;50.996;4.754;2022-10-31T06:46:57;28.70;;;23.67;;
8861;SDS011;4799;50.996;4.754;2022-10-31T06:49:22;29.93;;;24.73;;
8861;SDS011;4799;50.996;4.754;2022-10-31T06:51:48;28.50;;;22.37;;
8861;SDS011;4799;50.996;4.754;2022-10-31T06:54:15;33.47;;;26.87;;
8861;SDS011;4799;50.996;4.754;2022-10-31T06:56:41;33.73;;;26.03;;
8861;SDS011;4799;50.996;4.754;2022-10-31T06:59:06;30.37;;;24.50;;
8861;SDS011;4799;50.996;4.754;2022-10-31T07:01:32;31.20;;;25.40;;
8861;SDS011;4799;50.996;4.754;2022-10-31T07:03:58;31.83;;;26.13;;
8861;SDS011;4799;50.996;4.754;2022-10-31T07:06:24;33.13;;;26.90;;
8861;SDS011;4799;50.996;4.754;2022-10-31T07:08:50;42.77;;;30.97;;
8861;SDS011;4799;50.996;4.754;2022-10-31T07:11:15;34.40;;;27.70;;
8861;SDS011;4799;50.996;4.754;2022-10-31T07:13:41;35.73;;;28.43;;
8861;SDS011;4799;50.996;4.754;2022-10-31T07:16:07;33.37;;;28.93;;
8861;SDS011;4799;50.996;4.754;2022-10-31T07:18:35;37.20;;;30.63;;
8861;SDS011;4799;50.996;4.754;2022-10-31T07:21:01;34.30;;;28.20;;
8861;SDS011;4799;50.996;4.754;2022-10-31T07:23:27;37.83;;;30.37;;
8861;SDS011;4799;50.996;4.754;2022-10-31T07:25:56;35.27;;;29.43;;
8861;SDS011;4799;50.996;4.754;2022-10-31T07:28:24;31.90;;;25.93;;
8861;SDS011;4799;50.996;4.754;2022-10-31T07:30:51;29.17;;;26.03;;
8861;SDS011;4799;50.996;4.754;2022-10-31T07:33:18;30.03;;;25.47;;
8861;SDS011;4799;50.996;4.754;2022-10-31T07:35:44;36.70;;;30.40;;
8861;SDS011;4799;50.996;4.754;2022-10-31T07:38:11;34.73;;;28.20;;
8861;SDS011;4799;50.996;4.754;2022-10-31T07:40:38;33.70;;;27.93;;
8861;SDS011;4799;50.996;4.754;2022-10-31T07:43:05;37.33;;;28.63;;
8861;SDS011;4799;50.996;4.754;2022-10-31T07:45:31;28.90;;;24.33;;
8861;SDS011;4799;50.996;4.754;2022-10-31T07:47:56;31.43;;;26.53;;
8861;SDS011;4799;50.996;4.754;2022-10-31T07:50:23;30.17;;;26.67;;
8861;SDS011;4799;50.996;4.754;2022-10-31T07:55:28;33.13;;;28.03;;
8861;SDS011;4799;50.996;4.754;2022-10-31T07:57:59;29.10;;;25.97;;
8861;SDS011;4799;50.996;4.754;2022-10-31T08:00:25;29.73;;;26.53;;
8861;SDS011;4799;50.996;4.754;2022-10-31T08:05:44;32.07;;;28.67;;
8861;SDS011;4799;50.996;4.754;2022-10-31T08:08:11;30.63;;;27.33;;
8861;SDS011;4799;50.996;4.754;2022-10-31T08:10:37;30.73;;;27.43;;
8861;SDS011;4799;50.996;4.754;2022-10-31T08:13:07;28.30;;;25.03;;
8861;SDS011;4799;50.996;4.754;2022-10-31T08:15:34;29.77;;;26.77;;
8861;SDS011;4799;50.996;4.754;2022-10-31T08:18:03;31.77;;;28.37;;
8861;SDS011;4799;50.996;4.754;2022-10-31T08:20:29;30.67;;;27.37;;
8861;SDS011;4799;50.996;4.754;2022-10-31T08:22:59;30.63;;;27.47;;
8861;SDS011;4799;50.996;4.754;2022-10-31T08:25:28;31.43;;;26.90;;
8861;SDS011;4799;50.996;4.754;2022-10-31T08:27:55;32.90;;;27.87;;
8861;SDS011;4799;50.996;4.754;2022-10-31T08:30:23;28.33;;;25.27;;
8861;SDS011;4799;50.996;4.754;2022-10-31T08:32:58;28.03;;;25.10;;
8861;SDS011;4799;50.996;4.754;2022-10-31T08:35:25;28.53;;;25.60;;
8861;SDS011;4799;50.996;4.754;2022-10-31T08:37:52;28.43;;;24.23;;
8861;SDS011;4799;50.996;4.754;2022-10-31T08:40:19;25.90;;;23.40;;
8861;SDS011;4799;50.996;4.754;2022-10-31T08:42:45;27.23;;;24.60;;
8861;SDS011;4799;50.996;4.754;2022-10-31T08:45:10;25.67;;;22.73;;
8861;SDS011;4799;50.996;4.754;2022-10-31T08:47:36;24.63;;;22.33;;
8861;SDS011;4799;50.996;4.754;2022-10-31T08:50:02;25.93;;;23.40;;
8861;SDS011;4799;50.996;4.754;2022-10-31T08:52:28;27.23;;;24.13;;
8861;SDS011;4799;50.996;4.754;2022-10-31T08:54:53;26.43;;;23.53;;
8861;SDS011;4799;50.996;4.754;2022-10-31T08:57:19;25.70;;;21.60;;
8861;SDS011;4799;50.996;4.754;2022-10-31T08:59:45;27.40;;;22.37;;
8861;SDS011;4799;50.996;4.754;2022-10-31T09:02:10;24.83;;;22.23;;
8861;SDS011;4799;50.996;4.754;2022-10-31T09:04:36;25.57;;;22.87;;
8861;SDS011;4799;50.996;4.754;2022-10-31T09:07:02;27.33;;;24.47;;
8861;SDS011;4799;50.996;4.754;2022-10-31T09:09:28;27.77;;;24.77;;
8861;SDS011;4799;50.996;4.754;2022-10-31T09:11:53;26.33;;;23.73;;
8861;SDS011;4799;50.996;4.754;2022-10-31T09:14:19;24.57;;;22.07;;
8861;SDS011;4799;50.996;4.754;2022-10-31T09:16:44;27.30;;;24.57;;
8861;SDS011;4799;50.996;4.754;2022-10-31T09:19:10;25.17;;;22.50;;
8861;SDS011;4799;50.996;4.754;2022-10-31T09:21:36;24.53;;;21.93;;
8861;SDS011;4799;50.996;4.754;2022-10-31T09:24:02;25.97;;;23.27;;
8861;SDS011;4799;50.996;4.754;2022-10-31T09:26:27;26.67;;;23.67;;
8861;SDS011;4799;50.996;4.754;2022-10-31T09:28:53;23.27;;;20.27;;
8861;SDS011;4799;50.996;4.754;2022-10-31T09:31:19;26.17;;;23.37;;
8861;SDS011;4799;50.996;4.754;2022-10-31T09:33:44;25.87;;;23.07;;
8861;SDS011;4799;50.996;4.754;2022-10-31T09:36:10;25.27;;;22.57;;
8861;SDS011;4799;50.996;4.754;2022-10-31T09:38:36;23.97;;;21.47;;
8861;SDS011;4799;50.996;4.754;2022-10-31T09:41:13;25.23;;;22.73;;
8861;SDS011;4799;50.996;4.754;2022-10-31T09:52:22;21.33;;;19.13;;
8861;SDS011;4799;50.996;4.754;2022-10-31T09:57:23;23.90;;;21.40;;
8861;SDS011;4799;50.996;4.754;2022-10-31T09:59:53;25.23;;;22.30;;
8861;SDS011;4799;50.996;4.754;2022-10-31T10:05:18;23.93;;;21.53;;
8861;SDS011;4799;50.996;4.754;2022-10-31T10:16:09;25.40;;;22.63;;
8861;SDS011;4799;50.996;4.754;2022-10-31T10:27:47;24.00;;;21.57;;
8861;SDS011;4799;50.996;4.754;2022-10-31T10:33:37;22.70;;;20.33;;
8861;SDS011;4799;50.996;4.754;2022-10-31T10:39:33;22.53;;;19.33;;
8861;SDS011;4799;50.996;4.754;2022-10-31T10:42:12;23.57;;;20.57;;
8861;SDS011;4799;50.996;4.754;2022-10-31T10:44:57;23.30;;;19.17;;
8861;SDS011;4799;50.996;4.754;2022-10-31T10:47:43;20.40;;;18.50;;
8861;SDS011;4799;50.996;4.754;2022-10-31T10:50:18;21.57;;;19.27;;
8861;SDS011;4799;50.996;4.754;2022-10-31T10:52:50;21.83;;;19.73;;
8861;SDS011;4799;50.996;4.754;2022-10-31T10:55:29;21.43;;;19.13;;
8861;SDS011;4799;50.996;4.754;2022-10-31T10:58:08;20.60;;;18.40;;
8861;SDS011;4799;50.996;4.754;2022-10-31T11:00:40;21.57;;;19.37;;
8861;SDS011;4799;50.996;4.754;2022-10-31T11:03:11;24.73;;;19.70;;
8861;SDS011;4799;50.996;4.754;2022-10-31T11:05:39;22.57;;;19.33;;
8861;SDS011;4799;50.996;4.754;2022-10-31T11:11:19;19.27;;;17.23;;
8861;SDS011;4799;50.996;4.754;2022-10-31T11:13:51;18.50;;;16.70;;
8861;SDS011;4799;50.996;4.754;2022-10-31T11:16:33;19.70;;;16.73;;
8861;SDS011;4799;50.996;4.754;2022-10-31T11:19:06;17.93;;;16.03;;
8861;SDS011;4799;50.996;4.754;2022-10-31T11:21:46;20.13;;;16.30;;
8861;SDS011;4799;50.996;4.754;2022-10-31T11:24:14;19.40;;;16.03;;
8861;SDS011;4799;50.996;4.754;2022-10-31T11:26:48;19.23;;;15.40;;
8861;SDS011;4799;50.996;4.754;2022-10-31T11:29:16;17.37;;;15.53;;
8861;SDS011;4799;50.996;4.754;2022-10-31T11:31:48;17.80;;;15.90;;
8861;SDS011;4799;50.996;4.754;2022-10-31T11:34:23;19.00;;;15.97;;
8861;SDS011;4799;50.996;4.754;2022-10-31T11:36:58;16.83;;;15.03;;
8861;SDS011;4799;50.996;4.754;2022-10-31T11:39:50;17.10;;;14.33;;
8861;SDS011;4799;50.996;4.754;2022-10-31T11:42:21;15.23;;;13.63;;
8861;SDS011;4799;50.996;4.754;2022-10-31T11:44:48;19.20;;;15.00;;
8861;SDS011;4799;50.996;4.754;2022-10-31T11:47:16;18.23;;;14.70;;
8861;SDS011;4799;50.996;4.754;2022-10-31T11:49:46;20.00;;;13.73;;
8861;SDS011;4799;50.996;4.754;2022-10-31T11:52:15;16.83;;;13.53;;
8861;SDS011;4799;50.996;4.754;2022-10-31T11:59:55;15.90;;;12.83;;
8861;SDS011;4799;50.996;4.754;2022-10-31T12:02:23;14.50;;;11.77;;
8861;SDS011;4799;50.996;4.754;2022-10-31T12:05:03;13.70;;;11.57;;
8861;SDS011;4799;50.996;4.754;2022-10-31T12:07:30;12.87;;;11.20;;
8861;SDS011;4799;50.996;4.754;2022-10-31T12:09:56;16.03;;;11.87;;
8861;SDS011;4799;50.996;4.754;2022-10-31T12:15:26;12.03;;;10.70;;
8861;SDS011;4799;50.996;4.754;2022-10-31T12:26:43;11.33;;;10.13;;
8861;SDS011;4799;50.996;4.754;2022-10-31T12:29:17;13.33;;;8.90;;
8861;SDS011;4799;50.996;4.754;2022-10-31T12:32:09;15.97;;;9.87;;
8861;SDS011;4799;50.996;4.754;2022-10-31T12:37:23;15.13;;;10.10;;
8861;SDS011;4799;50.996;4.754;2022-10-31T12:43:09;15.83;;;10.40;;
8861;SDS011;4799;50.996;4.754;2022-10-31T12:45:58;12.07;;;8.83;;
8861;SDS011;4799;50.996;4.754;2022-10-31T12:54:09;12.17;;;9.30;;
8861;SDS011;4799;50.996;4.754;2022-10-31T13:02:24;15.80;;;10.03;;
8861;SDS011;4799;50.996;4.754;2022-10-31T13:04:54;15.03;;;10.27;;
8861;SDS011;4799;50.996;4.754;2022-10-31T13:07:30;11.97;;;9.47;;
8861;SDS011;4799;50.996;4.754;2022-10-31T13:12:37;12.43;;;10.30;;
8861;SDS011;4799;50.996;4.754;2022-10-31T13:15:12;13.20;;;10.27;;
8861;SDS011;4799;50.996;4.754;2022-10-31T13:17:46;14.50;;;9.90;;
8861;SDS011;4799;50.996;4.754;2022-10-31T13:22:51;13.20;;;10.33;;
8861;SDS011;4799;50.996;4.754;2022-10-31T13:25:24;13.97;;;10.83;;
8861;SDS011;4799;50.996;4.754;2022-10-31T13:28:00;13.33;;;10.30;;
8861;SDS011;4799;50.996;4.754;2022-10-31T13:30:29;15.27;;;10.57;;
8861;SDS011;4799;50.996;4.754;2022-10-31T13:33:07;13.73;;;10.30;;
8861;SDS011;4799;50.996;4.754;2022-10-31T13:38:39;13.30;;;9.93;;
8861;SDS011;4799;50.996;4.754;2022-10-31T13:41:44;13.53;;;10.10;;
8861;SDS011;4799;50.996;4.754;2022-10-31T13:44:28;10.47;;;8.90;;
8861;SDS011;4799;50.996;4.754;2022-10-31T13:46:56;12.13;;;8.70;;
8861;SDS011;4799;50.996;4.754;2022-10-31T13:52:06;14.03;;;9.20;;
8861;SDS011;4799;50.996;4.754;2022-10-31T13:54:38;12.20;;;9.30;;
8861;SDS011;4799;50.996;4.754;2022-10-31T13:59:59;14.23;;;9.33;;
8861;SDS011;4799;50.996;4.754;2022-10-31T14:05:04;12.70;;;8.53;;
8861;SDS011;4799;50.996;4.754;2022-10-31T14:07:43;13.37;;;8.27;;
8861;SDS011;4799;50.996;4.754;2022-10-31T14:12:51;13.73;;;8.43;;
8861;SDS011;4799;50.996;4.754;2022-10-31T14:15:27;11.83;;;9.03;;
8861;SDS011;4799;50.996;4.754;2022-10-31T14:20:53;11.80;;;8.57;;
8861;SDS011;4799;50.996;4.754;2022-10-31T14:26:30;12.73;;;8.73;;
8861;SDS011;4799;50.996;4.754;2022-10-31T14:28:52;11.87;;;9.57;;
8861;SDS011;4799;50.996;4.754;2022-10-31T14:31:45;12.83;;;9.37;;
8861;SDS011;4799;50.996;4.754;2022-10-31T14:34:26;12.70;;;9.07;;
8861;SDS011;4799;50.996;4.754;2022-10-31T14:48:07;13.67;;;8.80;;
8861;SDS011;4799;50.996;4.754;2022-10-31T14:50:49;12.13;;;8.83;;
8861;SDS011;4799;50.996;4.754;2022-10-31T14:55:57;12.27;;;9.07;;
8861;SDS011;4799;50.996;4.754;2022-10-31T14:58:40;11.90;;;9.13;;
8861;SDS011;4799;50.996;4.754;2022-10-31T15:01:25;13.53;;;9.03;;
8861;SDS011;4799;50.996;4.754;2022-10-31T15:03:54;12.43;;;9.07;;
8861;SDS011;4799;50.996;4.754;2022-10-31T15:06:28;14.47;;;9.60;;
8861;SDS011;4799;50.996;4.754;2022-10-31T15:09:02;13.07;;;8.77;;
8861;SDS011;4799;50.996;4.754;2022-10-31T15:11:28;15.47;;;9.37;;
8861;SDS011;4799;50.996;4.754;2022-10-31T15:14:16;12.80;;;8.67;;
8861;SDS011;4799;50.996;4.754;2022-10-31T15:16:50;12.43;;;9.33;;
8861;SDS011;4799;50.996;4.754;2022-10-31T15:19:20;13.20;;;9.13;;
8861;SDS011;4799;50.996;4.754;2022-10-31T15:21:51;11.77;;;8.33;;
8861;SDS011;4799;50.996;4.754;2022-10-31T15:24:19;13.53;;;8.97;;
8861;SDS011;4799;50.996;4.754;2022-10-31T15:26:47;13.40;;;8.93;;
8861;SDS011;4799;50.996;4.754;2022-10-31T15:29:16;9.97;;;8.20;;
8861;SDS011;4799;50.996;4.754;2022-10-31T15:37:04;14.77;;;9.60;;
8861;SDS011;4799;50.996;4.754;2022-10-31T15:39:35;12.30;;;9.40;;
8861;SDS011;4799;50.996;4.754;2022-10-31T15:42:01;13.13;;;9.60;;
8861;SDS011;4799;50.996;4.754;2022-10-31T15:44:34;14.27;;;10.23;;
8861;SDS011;4799;50.996;4.754;2022-10-31T15:47:21;12.33;;;8.43;;
8861;SDS011;4799;50.996;4.754;2022-10-31T15:49:53;14.73;;;9.57;;
8861;SDS011;4799;50.996;4.754;2022-10-31T15:57:42;14.30;;;10.47;;
8861;SDS011;4799;50.996;4.754;2022-10-31T16:03:56;13.90;;;10.60;;
8861;SDS011;4799;50.996;4.754;2022-10-31T16:05:58;15.10;;;10.60;;
8861;SDS011;4799;50.996;4.754;2022-10-31T16:10:58;16.67;;;10.93;;
8861;SDS011;4799;50.996;4.754;2022-10-31T16:13:56;15.83;;;11.07;;
8861;SDS011;4799;50.996;4.754;2022-10-31T16:16:31;12.53;;;10.67;;
8861;SDS011;4799;50.996;4.754;2022-10-31T16:18:58;16.97;;;11.07;;
8861;SDS011;4799;50.996;4.754;2022-10-31T16:21:33;15.97;;;11.57;;
8861;SDS011;4799;50.996;4.754;2022-10-31T16:24:03;18.17;;;11.73;;
8861;SDS011;4799;50.996;4.754;2022-10-31T16:26:38;16.70;;;12.47;;
8861;SDS011;4799;50.996;4.754;2022-10-31T16:29:04;15.03;;;11.87;;
8861;SDS011;4799;50.996;4.754;2022-10-31T16:31:47;15.63;;;12.73;;
8861;SDS011;4799;50.996;4.754;2022-10-31T16:34:22;13.97;;;12.27;;
8861;SDS011;4799;50.996;4.754;2022-10-31T16:36:48;15.30;;;12.30;;
8861;SDS011;4799;50.996;4.754;2022-10-31T16:39:15;15.60;;;12.50;;
8861;SDS011;4799;50.996;4.754;2022-10-31T16:41:43;16.23;;;12.90;;
8861;SDS011;4799;50.996;4.754;2022-10-31T16:44:28;15.20;;;12.93;;
8861;SDS011;4799;50.996;4.754;2022-10-31T16:49:32;14.97;;;12.43;;
8861;SDS011;4799;50.996;4.754;2022-10-31T16:51:58;15.37;;;12.97;;
8861;SDS011;4799;50.996;4.754;2022-10-31T16:54:23;16.80;;;12.73;;
8861;SDS011;4799;50.996;4.754;2022-10-31T16:56:49;16.57;;;13.43;;
8861;SDS011;4799;50.996;4.754;2022-10-31T16:59:15;19.43;;;13.80;;
8861;SDS011;4799;50.996;4.754;2022-10-31T17:01:40;17.67;;;13.17;;
8861;SDS011;4799;50.996;4.754;2022-10-31T17:04:13;17.77;;;12.17;;
8861;SDS011;4799;50.996;4.754;2022-10-31T17:06:40;18.10;;;12.17;;
8861;SDS011;4799;50.996;4.754;2022-10-31T17:09:07;15.67;;;11.57;;
8861;SDS011;4799;50.996;4.754;2022-10-31T17:11:32;12.27;;;10.57;;
8861;SDS011;4799;50.996;4.754;2022-10-31T17:13:59;15.00;;;10.67;;
8861;SDS011;4799;50.996;4.754;2022-10-31T17:16:25;16.17;;;10.30;;
8861;SDS011;4799;50.996;4.754;2022-10-31T17:18:52;14.67;;;10.67;;
8861;SDS011;4799;50.996;4.754;2022-10-31T17:21:18;13.40;;;9.60;;
8861;SDS011;4799;50.996;4.754;2022-10-31T17:23:47;13.00;;;9.73;;
8861;SDS011;4799;50.996;4.754;2022-10-31T17:26:13;12.53;;;9.67;;
8861;SDS011;4799;50.996;4.754;2022-10-31T17:28:40;12.83;;;8.60;;
8861;SDS011;4799;50.996;4.754;2022-10-31T17:31:05;10.53;;;8.60;;
8861;SDS011;4799;50.996;4.754;2022-10-31T17:33:35;11.40;;;8.20;;
8861;SDS011;4799;50.996;4.754;2022-10-31T17:36:02;10.83;;;8.03;;
8861;SDS011;4799;50.996;4.754;2022-10-31T17:38:28;12.33;;;8.17;;
8861;SDS011;4799;50.996;4.754;2022-10-31T17:40:54;11.47;;;7.20;;
8861;SDS011;4799;50.996;4.754;2022-10-31T17:43:19;10.43;;;7.53;;
8861;SDS011;4799;50.996;4.754;2022-10-31T17:45:45;11.27;;;6.70;;
8861;SDS011;4799;50.996;4.754;2022-10-31T17:48:11;9.90;;;7.03;;
8861;SDS011;4799;50.996;4.754;2022-10-31T17:50:37;12.37;;;7.67;;
8861;SDS011;4799;50.996;4.754;2022-10-31T17:53:03;10.70;;;7.43;;